createdAt,value
2022-12-26T00:01:02.139Z,35.93
2022-12-26T00:03:30.615Z,35.17
2022-12-26T00:05:58.629Z,40.17
2022-12-26T00:08:28.123Z,41.03
2022-12-26T00:10:56.099Z,42.57
2022-12-26T00:13:39.195Z,41.37
2022-12-26T00:16:10.080Z,38.70
2022-12-26T00:18:38.735Z,37.20
2022-12-26T00:21:07.043Z,37.60
2022-12-26T00:23:37.063Z,38.17
2022-12-26T00:26:05.979Z,38.43
2022-12-26T00:28:34.107Z,39.20
2022-12-26T00:31:07.174Z,39.53
2022-12-26T00:33:36.122Z,39.10
2022-12-26T00:36:05.009Z,38.10
2022-12-26T00:38:33.339Z,39.20
2022-12-26T00:41:02.824Z,37.27
2022-12-26T00:43:30.802Z,39.77
2022-12-26T00:45:58.734Z,41.00
2022-12-26T00:48:26.573Z,38.37
2022-12-26T00:50:54.654Z,40.53
2022-12-26T00:53:23.353Z,42.17
2022-12-26T00:55:51.462Z,41.33
2022-12-26T00:58:21.941Z,39.07
2022-12-26T01:00:50.387Z,37.37
2022-12-26T01:03:18.377Z,40.17
2022-12-26T01:05:49.080Z,39.00
2022-12-26T01:08:23.347Z,38.77
2022-12-26T01:10:52.931Z,39.47
2022-12-26T01:13:22.495Z,41.20
2022-12-26T01:15:51.847Z,40.70
2022-12-26T01:18:20.047Z,39.43
2022-12-26T01:20:48.881Z,40.40
2022-12-26T01:23:18.024Z,42.53
2022-12-26T01:26:15.559Z,43.93
2022-12-26T01:28:35.491Z,40.60
2022-12-26T01:31:04.097Z,38.87
2022-12-26T01:33:32.156Z,38.60
2022-12-26T01:36:00.370Z,38.60
2022-12-26T01:38:28.802Z,36.67
2022-12-26T01:41:10.552Z,32.13
2022-12-26T01:43:56.093Z,38.37
2022-12-26T01:46:28.564Z,33.13
2022-12-26T01:48:59.638Z,31.63
2022-12-26T01:51:31.217Z,27.73
2022-12-26T01:54:41.456Z,26.13
2022-12-26T01:56:53.022Z,25.10
2022-12-26T01:59:24.616Z,21.97
2022-12-26T02:01:55.256Z,20.80
2022-12-26T02:04:44.996Z,21.17
2022-12-26T02:07:13.285Z,20.03
2022-12-26T02:09:41.703Z,21.97
2022-12-26T02:12:35.369Z,20.30
2022-12-26T02:15:08.234Z,22.10
2022-12-26T02:17:36.140Z,24.20
2022-12-26T02:20:19.113Z,20.77
2022-12-26T02:23:20.520Z,24.37
2022-12-26T02:26:33.189Z,22.50
2022-12-26T02:29:41.939Z,30.40
2022-12-26T02:32:18.754Z,29.73
2022-12-26T02:34:56.884Z,33.40
2022-12-26T02:37:37.513Z,36.17
2022-12-26T02:40:20.474Z,32.80
2022-12-26T02:42:57.009Z,32.10
2022-12-26T02:45:52.704Z,32.20
2022-12-26T02:48:32.491Z,32.60
2022-12-26T02:51:29.474Z,32.60
2022-12-26T02:54:24.588Z,33.67
2022-12-26T02:57:14.050Z,30.43
2022-12-26T03:00:08.080Z,31.23
2022-12-26T03:02:59.253Z,42.13
2022-12-26T03:05:51.818Z,39.17
2022-12-26T03:08:44.341Z,36.27
2022-12-26T03:11:29.410Z,39.43
2022-12-26T03:14:04.164Z,45.20
2022-12-26T03:16:49.628Z,44.73
2022-12-26T03:19:18.030Z,44.03
2022-12-26T03:21:48.921Z,42.93
2022-12-26T03:24:18.563Z,59.27
2022-12-26T03:26:50.210Z,55.83
2022-12-26T03:29:37.642Z,53.47
2022-12-26T03:32:08.092Z,65.47
2022-12-26T03:34:41.885Z,65.23
2022-12-26T03:37:48.478Z,73.73
2022-12-26T03:40:44.407Z,61.33
2022-12-26T03:43:39.399Z,50.07
2022-12-26T03:46:35.840Z,46.53
2022-12-26T03:49:27.062Z,45.90
2022-12-26T03:52:18.067Z,46.00
2022-12-26T03:55:12.256Z,51.20
2022-12-26T03:58:02.188Z,49.00
2022-12-26T04:00:49.597Z,52.60
2022-12-26T04:03:38.632Z,49.03
2022-12-26T04:06:27.788Z,48.13
2022-12-26T04:09:18.298Z,45.17
2022-12-26T04:12:05.277Z,35.50
2022-12-26T04:14:59.128Z,39.60
2022-12-26T04:17:57.552Z,34.07
2022-12-26T04:20:31.179Z,31.63
2022-12-26T04:23:23.736Z,31.47
2022-12-26T04:26:17.862Z,31.30
2022-12-26T04:29:04.750Z,27.60
2022-12-26T04:31:55.023Z,29.37
2022-12-26T04:34:48.502Z,41.17
2022-12-26T04:37:40.913Z,37.93
2022-12-26T04:40:31.033Z,39.73
2022-12-26T04:43:48.491Z,39.83
2022-12-26T04:46:07.651Z,42.30
2022-12-26T04:49:01.150Z,41.13
2022-12-26T04:51:29.010Z,38.73
2022-12-26T04:53:56.904Z,37.23
2022-12-26T04:56:24.876Z,37.97
2022-12-26T04:58:52.719Z,38.10
2022-12-26T05:01:39.650Z,36.03
2022-12-26T05:04:36.253Z,37.27
2022-12-26T05:07:24.155Z,34.60
2022-12-26T05:09:54.593Z,36.73
2022-12-26T05:12:22.664Z,35.57
2022-12-26T05:14:50.509Z,35.47
2022-12-26T05:17:37.311Z,34.00
2022-12-26T05:20:23.408Z,33.00
2022-12-26T05:23:16.033Z,35.37
2022-12-26T05:26:03.470Z,34.57
2022-12-26T05:28:43.387Z,34.87
2022-12-26T05:31:12.640Z,36.17
2022-12-26T05:33:59.788Z,34.67
2022-12-26T05:36:32.543Z,37.10
2022-12-26T05:39:00.706Z,35.77
2022-12-26T05:41:29.066Z,33.77
2022-12-26T05:43:56.942Z,34.43
2022-12-26T05:46:24.902Z,35.23
2022-12-26T05:48:54.187Z,34.10
2022-12-26T05:51:22.261Z,35.93
2022-12-26T05:53:50.569Z,34.77
2022-12-26T05:56:19.276Z,36.23
2022-12-26T05:58:47.453Z,34.30
2022-12-26T06:01:17.795Z,33.90
2022-12-26T06:03:48.837Z,34.40
2022-12-26T06:06:19.299Z,34.00
2022-12-26T06:08:49.324Z,33.57
2022-12-26T06:11:18.526Z,32.13
2022-12-26T06:13:46.746Z,31.37
2022-12-26T06:16:17.663Z,30.73
2022-12-26T06:18:45.901Z,30.73
2022-12-26T06:21:15.602Z,30.57
2022-12-26T06:23:44.899Z,30.07
2022-12-26T06:26:13.648Z,28.13
2022-12-26T06:28:42.829Z,30.77
2022-12-26T06:31:14.516Z,29.60
2022-12-26T06:33:43.077Z,30.03
2022-12-26T06:36:12.902Z,28.23
2022-12-26T06:38:41.177Z,31.73
2022-12-26T06:41:12.448Z,29.93
2022-12-26T06:43:40.431Z,30.13
2022-12-26T06:46:09.465Z,29.20
2022-12-26T06:48:39.606Z,28.90
2022-12-26T06:51:10.571Z,30.23
2022-12-26T06:53:38.734Z,30.77
2022-12-26T06:56:07.861Z,29.93
2022-12-26T06:58:37.483Z,32.50
2022-12-26T07:01:06.520Z,31.73
2022-12-26T07:03:34.561Z,32.83
2022-12-26T07:06:05.250Z,33.47
2022-12-26T07:08:33.652Z,36.77
2022-12-26T07:11:02.022Z,34.40
2022-12-26T07:13:29.984Z,35.20
2022-12-26T07:16:01.479Z,33.43
2022-12-26T07:18:29.384Z,38.60
2022-12-26T07:20:57.267Z,43.67
2022-12-26T07:23:25.220Z,50.33
2022-12-26T07:25:53.149Z,57.97
2022-12-26T07:28:21.067Z,56.60
2022-12-26T07:30:49.487Z,55.67
2022-12-26T07:33:18.984Z,54.83
2022-12-26T07:35:46.838Z,56.00
2022-12-26T07:38:14.911Z,59.70
2022-12-26T07:40:42.853Z,58.93
2022-12-26T07:43:10.869Z,60.33
2022-12-26T07:45:43.484Z,55.10
2022-12-26T07:48:13.646Z,61.27
2022-12-26T07:50:47.080Z,58.00
2022-12-26T07:53:15.407Z,57.47
2022-12-26T07:55:43.345Z,55.60
2022-12-26T07:58:11.457Z,53.83
2022-12-26T08:00:39.332Z,54.57
2022-12-26T08:03:08.400Z,52.23
2022-12-26T08:05:39.337Z,52.73
2022-12-26T08:08:08.577Z,48.80
2022-12-26T08:10:37.974Z,46.73
2022-12-26T08:13:05.923Z,43.10
2022-12-26T08:15:33.936Z,38.77
2022-12-26T08:18:01.845Z,36.30
2022-12-26T08:20:29.776Z,34.23
2022-12-26T08:25:31.806Z,37.17
2022-12-26T08:28:00.299Z,39.00
2022-12-26T08:30:28.204Z,32.90
2022-12-26T08:32:56.101Z,31.30
2022-12-26T08:35:24.464Z,25.03
2022-12-26T08:37:52.417Z,24.90
2022-12-26T08:40:41.451Z,23.30
2022-12-26T08:43:31.022Z,22.83
2022-12-26T08:46:02.078Z,23.30
2022-12-26T08:48:30.499Z,23.97
2022-12-26T08:51:01.766Z,25.10
2022-12-26T08:53:32.907Z,24.23
2022-12-26T08:56:00.966Z,24.57
2022-12-26T08:58:30.408Z,25.50
2022-12-26T09:01:07.548Z,25.10
2022-12-26T09:03:35.835Z,24.53
2022-12-26T09:06:06.443Z,25.50
2022-12-26T09:08:35.716Z,25.90
2022-12-26T09:11:05.165Z,27.30
2022-12-26T09:13:35.701Z,27.60
2022-12-26T09:16:09.418Z,27.80
2022-12-26T09:18:37.624Z,27.47
2022-12-26T09:21:08.422Z,27.37
2022-12-26T09:23:37.168Z,24.83
2022-12-26T09:26:07.478Z,23.37
2022-12-26T09:28:37.557Z,23.80
2022-12-26T09:31:07.297Z,22.27
2022-12-26T09:33:37.612Z,21.27
2022-12-26T09:36:14.056Z,22.67
2022-12-26T09:38:42.858Z,22.23
2022-12-26T09:41:29.659Z,22.77
2022-12-26T09:44:07.187Z,24.00
2022-12-26T09:46:42.822Z,21.37
2022-12-26T09:49:14.341Z,23.10
2022-12-26T09:51:45.795Z,21.90
2022-12-26T09:54:19.128Z,21.47
2022-12-26T09:57:05.296Z,23.07
2022-12-26T09:59:47.271Z,23.07
2022-12-26T10:02:19.776Z,23.27
2022-12-26T10:04:47.984Z,23.57
2022-12-26T10:07:22.498Z,25.70
2022-12-26T10:10:03.951Z,26.33
2022-12-26T10:12:40.073Z,25.23
2022-12-26T10:15:32.636Z,25.53
2022-12-26T10:18:12.665Z,25.73
2022-12-26T10:20:53.084Z,26.67
2022-12-26T10:23:32.327Z,26.83
2022-12-26T10:26:07.019Z,23.77
2022-12-26T10:28:40.323Z,22.97
2022-12-26T10:31:16.861Z,25.43
2022-12-26T10:33:48.793Z,23.33
2022-12-26T10:36:23.098Z,21.20
2022-12-26T10:38:54.121Z,22.67
2022-12-26T10:41:28.956Z,24.30
2022-12-26T10:43:56.922Z,21.15
2022-12-26T10:46:40.611Z,19.08
2022-12-26T10:49:12.230Z,15.00
2022-12-26T10:51:40.456Z,16.13
2022-12-26T10:54:16.772Z,18.40
2022-12-26T10:56:46.378Z,16.67
2022-12-26T10:59:18.325Z,17.73
2022-12-26T11:01:50.994Z,17.60
2022-12-26T11:04:44.471Z,17.90
2022-12-26T11:07:12.298Z,18.13
2022-12-26T11:09:44.018Z,18.52
2022-12-26T11:12:22.155Z,20.25
2022-12-26T11:14:50.974Z,17.63
2022-12-26T11:17:29.290Z,18.15
2022-12-26T11:20:27.750Z,17.15
2022-12-26T11:22:56.017Z,17.15
2022-12-26T11:25:27.601Z,16.38
2022-12-26T11:27:57.480Z,16.60
2022-12-26T11:30:29.164Z,16.33
2022-12-26T11:33:24.065Z,14.75
2022-12-26T11:35:55.908Z,17.23
2022-12-26T11:38:44.204Z,16.60
2022-12-26T11:41:36.799Z,16.90
2022-12-26T11:44:22.623Z,16.13
2022-12-26T11:46:55.659Z,15.85
2022-12-26T11:49:31.138Z,14.13
2022-12-26T11:52:00.683Z,13.82
2022-12-26T11:54:32.281Z,15.95
2022-12-26T11:57:03.719Z,16.52
2022-12-26T11:59:31.649Z,17.85
2022-12-26T12:02:22.221Z,17.42
2022-12-26T12:04:55.993Z,17.45
2022-12-26T12:07:48.694Z,18.13
2022-12-26T12:10:47.829Z,17.50
2022-12-26T12:13:46.123Z,17.25
2022-12-26T12:16:32.778Z,16.95
2022-12-26T12:19:15.676Z,16.30
2022-12-26T12:21:46.654Z,16.27
2022-12-26T12:24:38.534Z,15.90
2022-12-26T12:27:13.245Z,14.90
2022-12-26T12:30:02.732Z,14.15
2022-12-26T12:32:41.079Z,13.52
2022-12-26T12:35:25.695Z,13.07
2022-12-26T12:38:17.450Z,13.05
2022-12-26T12:41:00.194Z,13.75
2022-12-26T12:43:33.511Z,13.35
2022-12-26T12:46:10.345Z,14.73
2022-12-26T12:48:51.109Z,14.20
2022-12-26T12:51:29.059Z,13.52
2022-12-26T12:54:16.580Z,14.98
2022-12-26T12:56:52.500Z,14.73
2022-12-26T12:59:33.517Z,15.57
2022-12-26T13:02:10.278Z,14.83
2022-12-26T13:04:44.342Z,16.10
2022-12-26T13:07:17.799Z,15.87
2022-12-26T13:09:51.210Z,15.40
2022-12-26T13:12:23.267Z,14.67
2022-12-26T13:14:56.718Z,14.73
2022-12-26T13:17:32.646Z,14.27
2022-12-26T13:20:04.545Z,13.70
2022-12-26T13:22:52.930Z,13.17
2022-12-26T13:25:25.830Z,11.23
2022-12-26T13:28:09.435Z,9.60
2022-12-26T13:30:38.652Z,10.03
2022-12-26T13:33:07.177Z,10.07
2022-12-26T13:35:56.844Z,10.07
2022-12-26T13:38:26.379Z,10.20
2022-12-26T13:41:21.912Z,8.47
2022-12-26T13:44:03.005Z,8.37
2022-12-26T13:46:38.617Z,9.33
2022-12-26T13:49:07.775Z,8.17
2022-12-26T13:52:00.590Z,9.10
2022-12-26T13:54:30.164Z,9.07
2022-12-26T13:57:41.187Z,8.03
2022-12-26T14:00:18.125Z,8.80
2022-12-26T14:03:24.013Z,8.10
2022-12-26T14:06:19.788Z,8.80
2022-12-26T14:09:07.104Z,8.07
2022-12-26T14:11:48.163Z,8.90
2022-12-26T14:14:27.723Z,10.07
2022-12-26T14:17:03.268Z,10.37
2022-12-26T14:19:43.974Z,12.77
2022-12-26T14:22:18.438Z,10.67
2022-12-26T14:25:05.761Z,16.30
2022-12-26T14:27:43.482Z,15.80
2022-12-26T14:30:25.490Z,14.60
2022-12-26T14:33:10.307Z,13.80
2022-12-26T14:35:46.049Z,15.93
2022-12-26T14:38:26.106Z,15.60
2022-12-26T14:41:06.933Z,16.33
2022-12-26T14:43:36.736Z,18.67
2022-12-26T14:46:29.031Z,17.57
2022-12-26T14:49:00.011Z,17.73
2022-12-26T14:51:36.925Z,20.03
2022-12-26T14:54:50.801Z,19.97
2022-12-26T14:57:46.198Z,28.27
2022-12-26T15:00:32.602Z,25.77
2022-12-26T15:03:45.976Z,25.30
2022-12-26T15:07:01.281Z,23.63
2022-12-26T15:10:13.749Z,18.87
2022-12-26T15:13:28.765Z,20.53
2022-12-26T15:16:11.513Z,16.47
2022-12-26T15:19:07.864Z,17.13
2022-12-26T15:22:13.778Z,15.77
2022-12-26T15:25:19.290Z,16.87
2022-12-26T15:28:18.170Z,27.43
2022-12-26T15:31:08.573Z,57.23
2022-12-26T15:33:41.814Z,66.60
2022-12-26T15:36:24.263Z,163.80
2022-12-26T15:38:59.576Z,115.50
2022-12-26T15:41:36.995Z,106.53
2022-12-26T15:44:17.778Z,95.67
2022-12-26T15:46:54.525Z,97.03
2022-12-26T15:49:33.730Z,110.07
2022-12-26T15:52:11.872Z,99.13
2022-12-26T15:55:07.842Z,84.20
2022-12-26T15:57:46.996Z,93.43
2022-12-26T16:00:18.848Z,84.33
2022-12-26T16:02:51.124Z,68.50
2022-12-26T16:05:44.182Z,76.07
2022-12-26T16:08:37.352Z,49.53
2022-12-26T16:11:31.745Z,63.97
2022-12-26T16:14:01.640Z,64.63
2022-12-26T16:16:35.235Z,44.80
2022-12-26T16:19:17.265Z,56.57
2022-12-26T16:22:06.281Z,43.70
2022-12-26T16:24:38.306Z,49.13
2022-12-26T16:27:09.142Z,46.97
2022-12-26T16:29:46.770Z,45.77
2022-12-26T16:32:19.134Z,47.80
2022-12-26T16:34:48.172Z,52.90
2022-12-26T16:37:20.217Z,49.87
2022-12-26T16:40:09.459Z,53.17
2022-12-26T16:42:37.351Z,51.00
2022-12-26T16:45:07.527Z,47.87
2022-12-26T16:47:36.454Z,50.60
2022-12-26T16:50:05.746Z,56.33
2022-12-26T16:52:43.956Z,53.20
2022-12-26T16:55:37.725Z,57.63
2022-12-26T16:58:15.270Z,54.93
2022-12-26T17:01:01.156Z,51.53
2022-12-26T17:03:37.629Z,55.17
2022-12-26T17:06:12.777Z,52.13
2022-12-26T17:08:46.167Z,44.83
2022-12-26T17:11:15.807Z,43.30
2022-12-26T17:13:52.775Z,38.97
2022-12-26T17:16:24.736Z,38.13
2022-12-26T17:18:54.056Z,34.67
2022-12-26T17:21:29.939Z,30.20
2022-12-26T17:24:06.929Z,26.83
2022-12-26T17:26:38.141Z,31.43
2022-12-26T17:29:06.285Z,34.13
2022-12-26T17:31:37.058Z,37.63
2022-12-26T17:34:09.395Z,31.93
2022-12-26T17:39:27.829Z,38.27
2022-12-26T17:41:59.186Z,38.83
2022-12-26T17:44:38.837Z,43.07
2022-12-26T17:47:20.670Z,50.43
2022-12-26T17:49:49.314Z,41.00
2022-12-26T17:52:20.698Z,36.40
2022-12-26T17:54:50.283Z,34.43
2022-12-26T17:57:22.929Z,33.00
2022-12-26T17:59:52.110Z,36.40
2022-12-26T18:02:21.608Z,33.47
2022-12-26T18:04:50.249Z,35.13
2022-12-26T18:07:24.314Z,29.67
2022-12-26T18:09:56.759Z,30.80
2022-12-26T18:12:25.980Z,39.80
2022-12-26T18:15:01.090Z,64.43
2022-12-26T18:17:32.859Z,61.20
2022-12-26T18:20:00.759Z,59.67
2022-12-26T18:22:28.906Z,51.37
2022-12-26T18:24:56.998Z,62.47
2022-12-26T18:27:30.273Z,53.27
2022-12-26T18:29:58.407Z,54.60
2022-12-26T18:32:27.724Z,58.37
2022-12-26T18:34:55.627Z,81.00
2022-12-26T18:37:35.815Z,103.03
2022-12-26T18:40:03.786Z,101.03
2022-12-26T18:42:33.077Z,136.87
2022-12-26T18:45:00.984Z,80.90
2022-12-26T18:47:30.028Z,71.60
2022-12-26T18:49:57.904Z,74.27
2022-12-26T18:52:25.807Z,66.90
2022-12-26T18:54:53.701Z,71.77
2022-12-26T18:57:21.811Z,70.33
2022-12-26T18:59:51.097Z,64.57
2022-12-26T19:02:20.354Z,69.13
2022-12-26T19:04:49.342Z,66.87
2022-12-26T19:07:18.235Z,76.87
2022-12-26T19:09:46.442Z,79.33
2022-12-26T19:12:14.495Z,103.10
2022-12-26T19:14:42.991Z,102.73
2022-12-26T19:17:12.364Z,102.87
2022-12-26T19:19:40.494Z,96.80
2022-12-26T19:22:08.910Z,89.97
2022-12-26T19:24:36.985Z,94.97
2022-12-26T19:27:05.354Z,88.23
2022-12-26T19:29:33.188Z,85.47
2022-12-26T19:32:01.160Z,83.63
2022-12-26T19:34:30.656Z,86.37
2022-12-26T19:36:58.517Z,90.23
2022-12-26T19:39:26.371Z,90.90
2022-12-26T19:41:54.319Z,87.10
2022-12-26T19:44:22.401Z,90.30
2022-12-26T19:46:50.344Z,106.63
2022-12-26T19:49:39.561Z,96.43
2022-12-26T19:52:07.707Z,84.00
2022-12-26T19:54:35.584Z,83.10
2022-12-26T19:57:03.486Z,89.57
2022-12-26T19:59:31.393Z,106.43
2022-12-26T20:01:59.478Z,122.10
2022-12-26T20:04:27.477Z,170.13
2022-12-26T20:06:59.816Z,242.50
2022-12-26T20:09:28.407Z,194.50
2022-12-26T20:11:57.174Z,176.10
2022-12-26T20:14:27.601Z,123.90
2022-12-26T20:17:06.117Z,122.70
2022-12-26T20:19:36.450Z,143.40
2022-12-26T20:22:06.718Z,122.57
2022-12-26T20:24:35.103Z,119.80
2022-12-26T20:27:03.537Z,122.57
2022-12-26T20:29:31.648Z,118.60
2022-12-26T20:31:59.867Z,104.03
2022-12-26T20:34:27.903Z,91.40
2022-12-26T20:36:55.795Z,97.60
2022-12-26T20:39:26.028Z,106.77
2022-12-26T20:41:54.390Z,82.97
2022-12-26T20:44:22.386Z,78.43
2022-12-26T20:46:50.259Z,70.07
2022-12-26T20:49:18.583Z,85.77
2022-12-26T20:51:46.892Z,67.03
2022-12-26T20:54:16.688Z,76.90
2022-12-26T20:56:47.238Z,94.90
2022-12-26T20:59:15.164Z,105.50
2022-12-26T21:01:43.464Z,108.10
2022-12-26T21:04:18.621Z,107.27
2022-12-26T21:06:47.576Z,104.43
2022-12-26T21:09:15.823Z,108.07
2022-12-26T21:11:45.438Z,99.30
2022-12-26T21:14:17.031Z,100.27
2022-12-26T21:16:46.984Z,119.53
2022-12-26T21:19:16.160Z,117.53
2022-12-26T21:21:45.736Z,147.27
2022-12-26T21:24:15.989Z,142.30
2022-12-26T21:26:44.168Z,147.93
2022-12-26T21:29:15.173Z,150.10
2022-12-26T21:31:43.204Z,148.93
2022-12-26T21:34:15.256Z,140.30
2022-12-26T21:37:04.250Z,133.80
2022-12-26T21:39:33.147Z,126.30
2022-12-26T21:42:02.163Z,129.47
2022-12-26T21:44:31.441Z,136.70
2022-12-26T21:46:59.357Z,136.03
2022-12-26T21:49:27.393Z,135.20
2022-12-26T21:51:55.315Z,128.70
2022-12-26T21:54:46.676Z,137.80
2022-12-26T21:57:17.100Z,145.53
2022-12-26T21:59:59.357Z,147.40
2022-12-26T22:02:48.365Z,178.10
2022-12-26T22:05:17.257Z,208.60
2022-12-26T22:07:45.537Z,205.37
2022-12-26T22:10:34.771Z,191.17
2022-12-26T22:13:02.827Z,196.13
2022-12-26T22:16:04.313Z,215.73
2022-12-26T22:18:33.738Z,218.77
2022-12-26T22:21:06.916Z,207.73
2022-12-26T22:23:35.220Z,198.20
2022-12-26T22:26:03.193Z,189.23
2022-12-26T22:28:31.525Z,192.70
2022-12-26T22:31:01.768Z,209.77
2022-12-26T22:33:30.609Z,205.27
2022-12-26T22:36:05.626Z,200.30
2022-12-26T22:38:33.558Z,192.77
2022-12-26T22:41:01.947Z,215.20
2022-12-26T22:43:30.657Z,226.10
2022-12-26T22:46:00.271Z,223.63
2022-12-26T22:48:28.412Z,183.37
2022-12-26T22:50:56.951Z,186.70
2022-12-26T22:53:25.926Z,180.70
2022-12-26T22:55:58.579Z,204.30
2022-12-26T22:58:26.723Z,196.10
2022-12-26T23:00:54.578Z,203.53
2022-12-26T23:03:24.242Z,176.57
2022-12-26T23:05:53.174Z,176.63
2022-12-26T23:08:23.300Z,155.73
2022-12-26T23:10:53.492Z,170.33
2022-12-26T23:13:21.839Z,157.00
2022-12-26T23:15:56.383Z,142.73
2022-12-26T23:18:52.725Z,145.23
2022-12-26T23:21:43.161Z,160.07
2022-12-26T23:24:15.796Z,169.77
2022-12-26T23:26:46.011Z,184.60
2022-12-26T23:29:32.632Z,188.40
2022-12-26T23:32:00.926Z,187.77
2022-12-26T23:34:30.246Z,191.37
2022-12-26T23:36:58.193Z,194.50
2022-12-26T23:39:26.276Z,210.67
2022-12-26T23:41:54.473Z,231.60
2022-12-26T23:44:22.373Z,211.67
2022-12-26T23:46:50.357Z,279.90
2022-12-26T23:49:18.693Z,257.80
2022-12-26T23:51:47.980Z,252.37
2022-12-26T23:54:15.887Z,265.30
2022-12-26T23:56:43.737Z,246.67
2022-12-26T23:59:11.573Z,216.83
